Time;durP1;ratioP1;P1;durP2;ratioP2;P2;SDS_P1;SDS_P2;PMS_P1;PMS_P2;Temp;Humidity;BMP_temperature;BMP_pressure;BME280_temperature;BME280_humidity;BME280_pressure;Samples;Min_cycle;Max_cycle;Signal;HPM_P1;HPM_P2
2022/03/25 00:02:19;;;;;;;64.22;30.90;;;;;;;3.70;52.10;103015.75;5039096;28;20546;-78
2022/03/25 00:04:45;;;;;;;61.47;30.08;;;;;;;3.73;51.73;103017.53;5024699;28;20090;-80
2022/03/25 00:07:10;;;;;;;60.05;29.73;;;;;;;3.60;51.67;103016.38;5024367;28;20055;-78
2022/03/25 00:09:36;;;;;;;68.72;30.73;;;;;;;3.48;52.20;103010.94;5041643;28;20490;-80
2022/03/25 00:12:03;;;;;;;64.15;28.85;;;;;;;3.39;52.15;103019.34;5039997;28;20048;-80
2022/03/25 00:14:29;;;;;;;61.05;29.48;;;;;;;3.46;52.14;103022.94;5042721;28;20460;-79
2022/03/25 00:16:54;;;;;;;61.30;29.17;;;;;;;3.41;52.12;103020.25;5040104;28;20047;-80
2022/03/25 00:19:20;;;;;;;59.95;27.73;;;;;;;3.25;52.47;103018.06;5041121;28;20036;-81
2022/03/25 00:21:45;;;;;;;64.25;29.15;;;;;;;3.24;52.81;103026.66;5041972;28;20040;-78
2022/03/25 00:24:11;;;;;;;58.05;29.58;;;;;;;3.26;52.45;103022.41;5028782;28;20044;-78
2022/03/25 00:26:36;;;;;;;67.60;31.00;;;;;;;3.21;52.69;103029.19;5041357;28;20094;-81
2022/03/25 00:29:02;;;;;;;61.85;28.73;;;;;;;3.27;52.51;103029.31;5024374;28;20499;-81
2022/03/25 00:31:28;;;;;;;61.55;30.00;;;;;;;3.26;52.58;103019.84;5044552;28;20025;-80
2022/03/25 00:33:53;;;;;;;64.50;30.65;;;;;;;3.23;52.44;103024.94;5040462;28;20040;-80
2022/03/25 00:36:21;;;;;;;67.63;29.35;;;;;;;3.20;52.79;103015.38;5044224;28;20032;-79
2022/03/25 00:38:47;;;;;;;70.07;30.80;;;;;;;3.17;52.44;103016.16;5039031;28;20079;-78
2022/03/25 00:41:13;;;;;;;67.63;30.73;;;;;;;3.11;52.72;103010.88;5040888;28;20394;-79
2022/03/25 00:43:42;;;;;;;62.75;28.95;;;;;;;3.09;52.56;103021.97;5041530;28;20570;-78
2022/03/25 00:46:10;;;;;;;61.70;29.50;;;;;;;3.09;52.80;103022.88;5040885;28;20024;-80
2022/03/25 00:48:42;;;;;;;68.55;31.17;;;;;;;3.06;52.83;103022.78;5041930;28;20088;-78
2022/03/25 00:51:08;;;;;;;71.28;33.28;;;;;;;3.03;52.93;103022.72;5020489;28;20029;-81
2022/03/25 00:53:34;;;;;;;65.85;32.75;;;;;;;3.02;53.07;103018.34;5041194;28;20212;-80
2022/03/25 00:56:03;;;;;;;64.40;31.25;;;;;;;3.05;52.87;103020.16;5040009;28;20050;-77
2022/03/25 00:58:29;;;;;;;74.07;32.15;;;;;;;3.05;52.92;103026.22;5041783;28;20071;-80
2022/03/25 01:00:56;;;;;;;72.65;31.08;;;;;;;3.02;53.02;103020.94;5043448;28;20522;-79
2022/03/25 01:03:22;;;;;;;75.32;32.33;;;;;;;3.00;53.28;103027.78;5042199;28;20346;-80
2022/03/25 01:05:49;;;;;;;64.53;29.10;;;;;;;3.07;53.28;103024.53;5040773;28;20506;-80
2022/03/25 01:08:15;;;;;;;73.88;31.98;;;;;;;3.08;53.07;103015.94;5039934;28;20404;-79
2022/03/25 01:10:43;;;;;;;79.28;33.92;;;;;;;3.19;52.31;103024.84;5042160;28;20821;-78
2022/03/25 01:13:10;;;;;;;70.88;32.58;;;;;;;3.11;52.71;103026.38;5001953;28;20116;-78
2022/03/25 01:15:36;;;;;;;82.03;35.15;;;;;;;3.22;52.67;103023.16;5016452;28;20047;-78
2022/03/25 01:18:02;;;;;;;71.00;32.03;;;;;;;3.35;52.25;103015.78;5020529;28;20029;-78
2022/03/25 01:20:27;;;;;;;76.53;32.65;;;;;;;3.40;52.05;103021.06;5046591;28;20047;-80
2022/03/25 01:22:53;;;;;;;65.63;31.52;;;;;;;3.29;52.59;103023.41;5021085;28;20047;-78
2022/03/25 01:25:19;;;;;;;72.70;33.92;;;;;;;3.24;52.67;103029.25;5041598;28;20108;-78
2022/03/25 01:27:47;;;;;;;72.97;31.67;;;;;;;3.28;52.90;103023.31;5044003;28;20560;-81
2022/03/25 01:30:12;;;;;;;74.65;33.17;;;;;;;3.30;53.04;103019.97;5041824;28;20259;-79
2022/03/25 01:32:39;;;;;;;74.20;32.30;;;;;;;3.38;52.83;103022.72;5023967;28;20264;-78
2022/03/25 01:35:12;;;;;;;71.75;31.92;;;;;;;3.39;52.68;103020.19;5041891;28;20173;-79
2022/03/25 01:37:38;;;;;;;78.40;34.45;;;;;;;3.28;53.21;103018.16;5039278;28;20414;-77
2022/03/25 01:40:09;;;;;;;80.75;32.03;;;;;;;3.38;52.96;103015.88;5040172;28;20105;-79
2022/03/25 01:42:36;;;;;;;68.05;30.83;;;;;;;3.39;52.77;103011.56;5041057;28;20048;-75
2022/03/25 01:45:04;;;;;;;69.75;30.90;;;;;;;3.39;52.87;103016.75;5017473;28;20506;-78
2022/03/25 01:47:32;;;;;;;78.15;32.45;;;;;;;3.38;52.88;103014.97;5042990;28;20033;-78
2022/03/25 01:49:59;;;;;;;69.68;30.83;;;;;;;3.48;52.57;103005.75;5040763;28;20037;-78
2022/03/25 01:52:26;;;;;;;70.30;32.15;;;;;;;3.54;51.91;103011.09;5045945;28;20063;-79
2022/03/25 01:54:52;;;;;;;60.67;29.73;;;;;;;3.44;52.30;103009.97;5038059;28;20112;-78
2022/03/25 01:57:23;;;;;;;69.28;30.60;;;;;;;3.38;52.49;103009.81;5024260;28;20033;-77
2022/03/25 01:59:49;;;;;;;70.32;29.10;;;;;;;3.36;52.14;103011.50;5040206;28;20426;-77
2022/03/25 02:02:14;;;;;;;68.72;29.25;;;;;;;3.31;52.24;102997.59;5023804;28;20039;-78
2022/03/25 02:04:41;;;;;;;72.05;30.88;;;;;;;3.32;52.51;102999.34;5039592;28;20041;-78
2022/03/25 02:07:09;;;;;;;66.95;30.83;;;;;;;3.26;52.05;103006.91;5022595;28;20326;-76
2022/03/25 02:09:35;;;;;;;65.20;29.40;;;;;;;3.11;52.16;102995.38;5045036;28;20041;-77
2022/03/25 02:12:08;;;;;;;57.92;28.50;;;;;;;3.05;51.95;103002.09;5040254;28;20143;-79
2022/03/25 02:14:33;;;;;;;65.05;29.67;;;;;;;3.02;52.16;102994.25;5043815;28;20036;-79
2022/03/25 02:17:00;;;;;;;62.03;28.73;;;;;;;3.00;52.24;102996.78;5023795;28;20115;-78
2022/03/25 02:19:27;;;;;;;64.15;27.70;;;;;;;2.89;52.09;102998.22;5028909;28;20128;-77
2022/03/25 02:21:53;;;;;;;62.55;28.42;;;;;;;2.85;52.27;102994.69;5019696;28;20025;-77
2022/03/25 02:24:26;;;;;;;64.07;28.65;;;;;;;2.82;52.17;102991.13;5026556;28;20033;-78
2022/03/25 02:26:52;;;;;;;67.72;29.75;;;;;;;2.75;52.50;102985.81;5042647;28;20035;-78
2022/03/25 02:29:18;;;;;;;56.65;28.13;;;;;;;2.74;52.64;102989.22;5023912;28;20150;-77
2022/03/25 02:31:43;;;;;;;56.03;26.88;;;;;;;2.77;52.35;102989.31;5005192;28;20159;-77
2022/03/25 02:34:10;;;;;;;59.70;27.65;;;;;;;2.70;52.31;103002.88;5022350;28;20065;-79
2022/03/25 02:36:44;;;;;;;66.30;27.55;;;;;;;2.53;52.63;102997.28;5043863;28;20124;-79
2022/03/25 02:39:11;;;;;;;62.08;26.73;;;;;;;2.45;53.08;102997.91;5039231;28;20079;-78
2022/03/25 02:41:38;;;;;;;67.20;27.17;;;;;;;2.42;53.25;102996.13;5023277;28;20128;-78
2022/03/25 02:44:05;;;;;;;57.08;25.70;;;;;;;2.46;53.22;102997.91;5021994;28;20032;-79
2022/03/25 02:46:31;;;;;;;67.50;27.48;;;;;;;2.57;53.06;102993.94;5042948;28;20025;-78
2022/03/25 02:48:57;;;;;;;57.22;28.30;;;;;;;2.74;52.63;102994.41;5037585;28;20041;-78
2022/03/25 02:51:22;;;;;;;62.75;27.92;;;;;;;2.72;52.39;102995.19;5026348;28;20565;-80
2022/03/25 02:53:48;;;;;;;62.40;28.13;;;;;;;2.65;52.38;102994.16;5043445;28;20036;-77
2022/03/25 02:56:14;;;;;;;60.30;25.08;;;;;;;2.60;52.69;102998.34;5023437;28;20033;-78
2022/03/25 02:58:40;;;;;;;65.55;27.20;;;;;;;2.64;52.63;102992.38;5038557;28;20511;-78
2022/03/25 03:01:09;;;;;;;51.97;24.30;;;;;;;2.68;52.11;102989.06;5042261;28;20146;-77
2022/03/25 03:03:35;;;;;;;60.80;28.00;;;;;;;2.48;52.40;102992.81;5024566;28;20064;-77
2022/03/25 03:06:00;;;;;;;55.35;25.42;;;;;;;2.46;52.64;102991.88;5038393;28;20060;-78
2022/03/25 03:08:27;;;;;;;54.53;23.42;;;;;;;2.46;52.15;102992.75;5037949;28;20435;-79
2022/03/25 03:10:53;;;;;;;51.10;23.83;;;;;;;2.48;52.26;102985.06;5036929;28;20036;-78
2022/03/25 03:13:20;;;;;;;55.80;24.33;;;;;;;2.47;52.05;102993.66;5022912;28;20033;-77
2022/03/25 03:15:47;;;;;;;55.70;24.40;;;;;;;2.41;52.06;102990.91;5037861;28;20058;-79
2022/03/25 03:18:12;;;;;;;57.10;25.58;;;;;;;2.42;52.10;102985.78;5021778;28;20385;-76
2022/03/25 03:20:38;;;;;;;55.60;25.08;;;;;;;2.33;52.07;102986.41;5020844;28;20606;-79
2022/03/25 03:23:04;;;;;;;63.17;26.63;;;;;;;2.18;52.29;102983.38;5043688;28;20033;-80
2022/03/25 03:25:31;;;;;;;66.53;26.45;;;;;;;2.18;52.37;102993.69;5038103;28;20078;-80
2022/03/25 03:27:56;;;;;;;54.50;26.13;;;;;;;2.14;52.36;102999.59;5039370;28;20482;-78
2022/03/25 03:30:22;;;;;;;62.42;26.63;;;;;;;2.09;52.85;103001.19;5017860;28;20094;-79
2022/03/25 03:32:48;;;;;;;62.13;26.60;;;;;;;2.07;52.47;103008.00;5036920;28;20045;-77
2022/03/25 03:35:14;;;;;;;57.90;25.55;;;;;;;2.09;52.28;102996.88;5038415;28;20123;-77
2022/03/25 03:37:44;;;;;;;62.30;25.33;;;;;;;2.02;52.45;102999.22;5035898;28;20080;-79
2022/03/25 03:40:11;;;;;;;58.38;26.75;;;;;;;1.96;52.73;102993.91;5022283;28;20094;-78
2022/03/25 03:42:37;;;;;;;58.78;25.02;;;;;;;2.02;52.78;102999.22;5035828;28;20076;-78
2022/03/25 03:45:06;;;;;;;53.53;23.63;;;;;;;2.04;52.75;102989.81;5038292;28;20037;-78
2022/03/25 03:47:31;;;;;;;52.78;23.58;;;;;;;2.15;52.74;102996.19;5020750;28;20317;-79
2022/03/25 03:49:57;;;;;;;65.85;26.80;;;;;;;2.13;52.66;102992.66;5038433;28;20040;-78
2022/03/25 03:52:23;;;;;;;56.58;25.42;;;;;;;2.10;52.38;102998.63;5038887;28;20347;-79
2022/03/25 03:54:49;;;;;;;59.03;25.33;;;;;;;2.02;52.71;102996.63;5018559;28;20351;-77
2022/03/25 03:57:15;;;;;;;55.63;25.15;;;;;;;1.90;53.11;103005.75;5037034;28;20487;-79
2022/03/25 03:59:40;;;;;;;56.80;26.90;;;;;;;1.91;53.22;103004.94;5020001;28;20478;-78
2022/03/25 04:02:07;;;;;;;54.42;26.10;;;;;;;2.01;52.99;103003.50;5025291;28;20068;-79
2022/03/25 04:04:34;;;;;;;52.53;24.42;;;;;;;1.92;53.10;103004.09;5042678;28;20044;-78
2022/03/25 04:07:00;;;;;;;48.53;23.63;;;;;;;2.04;52.63;103002.72;5038221;28;20021;-80
2022/03/25 04:09:26;;;;;;;52.35;23.42;;;;;;;2.13;52.49;102997.84;5038017;28;20124;-79
2022/03/25 04:11:53;;;;;;;54.90;23.30;;;;;;;2.03;52.68;103001.00;5036254;28;20311;-79
2022/03/25 04:14:19;;;;;;;52.65;23.42;;;;;;;2.02;52.60;102996.63;5037367;28;20148;-78
2022/03/25 04:16:45;;;;;;;45.53;21.58;;;;;;;1.98;52.31;103002.56;5036955;28;20550;-77
2022/03/25 04:19:11;;;;;;;52.45;23.63;;;;;;;1.85;52.43;103004.75;5038836;28;20041;-77
2022/03/25 04:21:36;;;;;;;54.15;23.50;;;;;;;1.86;52.32;103005.63;5021251;28;20415;-79
2022/03/25 04:24:02;;;;;;;47.15;21.60;;;;;;;1.73;52.55;103009.56;5035546;28;20037;-79
2022/03/25 04:26:28;;;;;;;50.53;23.02;;;;;;;1.79;52.37;103001.97;5038958;28;20453;-79
2022/03/25 04:28:54;;;;;;;49.97;22.13;;;;;;;1.89;52.14;102998.88;5014334;28;20055;-79
2022/03/25 04:31:20;;;;;;;51.60;24.70;;;;;;;1.98;52.32;103002.56;5042604;28;20029;-78
2022/03/25 04:33:45;;;;;;;50.72;23.45;;;;;;;1.93;52.30;102997.28;5035459;28;20045;-77
2022/03/25 04:36:11;;;;;;;47.33;21.88;;;;;;;1.89;52.24;103006.59;5037476;28;20043;-78
2022/03/25 04:38:37;;;;;;;55.90;22.98;;;;;;;1.80;52.43;103006.31;5020212;28;20041;-79
2022/03/25 04:41:02;;;;;;;52.38;22.90;;;;;;;1.83;52.02;103006.41;5037418;28;20426;-80
2022/03/25 04:43:28;;;;;;;46.88;21.05;;;;;;;1.82;51.73;103009.84;5038286;28;20334;-78
2022/03/25 04:45:54;;;;;;;52.25;22.77;;;;;;;1.75;52.08;103014.72;5016695;28;20032;-79
2022/03/25 04:48:20;;;;;;;49.97;22.55;;;;;;;1.79;52.20;103012.28;5045408;28;20040;-78
2022/03/25 04:50:46;;;;;;;49.22;20.73;;;;;;;1.69;51.84;103016.31;5040296;28;20040;-77
2022/03/25 04:53:12;;;;;;;60.28;23.92;;;;;;;1.59;52.04;103015.97;5042981;28;20037;-79
2022/03/25 04:55:38;;;;;;;50.13;23.42;;;;;;;1.60;52.45;103015.16;5043850;28;20040;-77
2022/03/25 04:58:03;;;;;;;55.53;25.15;;;;;;;1.57;52.36;103007.31;5038650;28;20529;-77
2022/03/25 05:00:29;;;;;;;53.92;23.15;;;;;;;1.68;52.46;103008.50;5045295;28;20033;-80
2022/03/25 05:02:54;;;;;;;54.25;23.25;;;;;;;1.72;52.42;103003.50;5038472;28;20037;-77
2022/03/25 05:05:20;;;;;;;51.28;22.17;;;;;;;1.80;52.31;103015.78;5023346;28;20466;-80
2022/03/25 05:07:46;;;;;;;49.97;22.45;;;;;;;1.81;52.16;103009.78;5042027;28;20635;-78
2022/03/25 05:10:13;;;;;;;47.22;21.63;;;;;;;1.82;52.39;103006.34;5044522;28;20058;-79
2022/03/25 05:12:43;;;;;;;48.90;21.30;;;;;;;1.80;51.88;103005.47;5026973;28;20103;-79
2022/03/25 05:15:09;;;;;;;52.80;23.35;;;;;;;1.74;51.56;103013.88;5039774;28;20041;-78
2022/03/25 05:17:43;;;;;;;40.40;22.17;;;;;;;1.66;51.89;103010.16;5039076;28;20699;-76
2022/03/25 05:20:09;;;;;;;51.90;22.15;;;;;;;1.64;52.10;103014.38;5041046;28;20115;-79
2022/03/25 05:22:34;;;;;;;50.53;22.50;;;;;;;1.68;51.89;103016.25;5044095;28;20327;-75
2022/03/25 05:25:00;;;;;;;51.30;23.50;;;;;;;1.59;52.12;103019.41;5041638;28;21196;-77
2022/03/25 05:27:26;;;;;;;45.13;22.40;;;;;;;1.67;52.03;103022.25;5026941;28;20425;-76
2022/03/25 05:29:51;;;;;;;51.75;22.27;;;;;;;1.67;51.90;103024.81;5024453;28;20053;-79
2022/03/25 05:32:17;;;;;;;50.22;21.55;;;;;;;1.72;51.79;103031.84;5043248;28;20045;-80
2022/03/25 05:34:42;;;;;;;49.28;21.38;;;;;;;1.79;52.04;103035.50;5023730;28;20120;-77
2022/03/25 05:37:08;;;;;;;51.80;23.42;;;;;;;1.80;52.15;103032.13;5040532;28;20109;-77
2022/03/25 05:39:33;;;;;;;48.80;20.85;;;;;;;1.92;51.71;103035.06;5043748;28;20037;-78
2022/03/25 05:41:59;;;;;;;45.85;22.23;;;;;;;2.00;51.99;103042.16;5044930;28;20112;-79
2022/03/25 05:44:24;;;;;;;45.17;20.13;;;;;;;2.07;51.58;103033.78;5040599;28;20061;-78
2022/03/25 05:46:50;;;;;;;47.28;20.55;;;;;;;2.24;51.90;103042.91;5022056;28;20041;-78
2022/03/25 05:49:15;;;;;;;49.83;23.08;;;;;;;2.26;51.60;103051.53;5023044;28;20033;-76
2022/03/25 05:51:41;;;;;;;47.90;21.40;;;;;;;2.38;51.64;103050.16;5038654;28;20136;-76
2022/03/25 05:54:06;;;;;;;49.30;23.27;;;;;;;2.53;52.08;103055.75;5022245;28;20128;-77
2022/03/25 05:56:32;;;;;;;51.42;23.70;;;;;;;2.75;51.90;103054.66;5025768;28;20458;-78
2022/03/25 05:58:58;;;;;;;44.90;21.58;;;;;;;3.01;51.46;103057.09;5020933;28;20553;-79
2022/03/25 06:01:23;;;;;;;45.95;21.73;;;;;;;3.24;51.17;103047.34;5043129;28;20033;-79
2022/03/25 06:03:49;;;;;;;48.45;21.60;;;;;;;3.44;51.19;103046.16;5037517;28;20079;-79
2022/03/25 06:06:14;;;;;;;46.55;22.52;;;;;;;3.57;50.71;103061.13;5037200;28;20582;-80
2022/03/25 06:08:40;;;;;;;51.85;23.27;;;;;;;3.70;50.50;103053.69;5039960;28;20059;-80
2022/03/25 06:11:06;;;;;;;54.47;24.70;;;;;;;4.23;50.57;103059.22;5039050;28;20032;-80
2022/03/25 06:13:31;;;;;;;52.22;23.95;;;;;;;5.49;49.05;103058.13;5038647;28;20043;-81
2022/03/25 06:15:57;;;;;;;48.60;22.35;;;;;;;6.75;47.10;103065.94;5020534;28;20051;-80
2022/03/25 06:18:23;;;;;;;44.20;21.30;;;;;;;7.80;45.20;103060.00;5021097;28;20047;-81
2022/03/25 06:20:48;;;;;;;47.28;22.83;;;;;;;8.50;42.82;103054.25;5039521;28;20630;-80
2022/03/25 06:23:14;;;;;;;44.47;20.52;;;;;;;9.28;41.25;103058.78;5036320;28;20118;-80
2022/03/25 06:25:41;;;;;;;43.75;20.67;;;;;;;10.05;39.16;103056.09;5037638;28;20033;-79
2022/03/25 06:28:07;;;;;;;43.85;20.90;;;;;;;10.93;36.51;103061.81;5021368;28;20045;-79
2022/03/25 06:30:36;;;;;;;39.53;20.83;;;;;;;11.65;36.05;103055.09;5038187;28;20127;-78
2022/03/25 06:33:09;;;;;;;35.85;18.92;;;;;;;12.02;33.58;103062.59;5035909;28;20188;-80
2022/03/25 06:35:36;;;;;;;34.05;18.98;;;;;;;12.13;32.88;103065.97;5038850;28;20045;-80
2022/03/25 06:38:03;;;;;;;38.10;19.70;;;;;;;12.42;32.40;103064.75;5036522;28;20389;-80
2022/03/25 06:40:29;;;;;;;29.55;17.48;;;;;;;11.99;31.36;103075.75;5040805;28;20032;-79
2022/03/25 06:42:57;;;;;;;33.90;17.73;;;;;;;12.66;31.23;103074.91;5035333;28;20033;-80
2022/03/25 06:45:23;;;;;;;31.75;17.42;;;;;;;13.01;30.16;103081.44;5039997;28;20143;-80
2022/03/25 06:47:49;;;;;;;29.10;17.85;;;;;;;12.97;29.44;103082.38;5015407;28;20130;-80
2022/03/25 06:50:16;;;;;;;31.88;17.58;;;;;;;13.01;30.44;103089.31;5043554;28;20037;-80
2022/03/25 06:52:42;;;;;;;33.30;18.80;;;;;;;13.25;30.14;103087.19;5041480;28;20048;-79
2022/03/25 06:55:09;;;;;;;28.55;17.88;;;;;;;13.77;29.58;103091.59;5038125;28;20064;-79
2022/03/25 06:57:35;;;;;;;31.50;17.35;;;;;;;13.55;28.51;103087.56;5037825;28;20584;-80
2022/03/25 07:00:01;;;;;;;28.95;17.75;;;;;;;14.20;29.60;103085.50;5037443;28;20037;-80
2022/03/25 07:02:26;;;;;;;32.80;18.38;;;;;;;14.96;28.07;103082.09;5038766;28;20037;-79
2022/03/25 07:04:52;;;;;;;27.65;16.63;;;;;;;16.19;26.58;103089.50;5040223;28;20036;-79
2022/03/25 07:07:25;;;;;;;32.00;16.90;;;;;;;16.35;26.12;103084.63;5039841;28;20068;-84
2022/03/25 07:09:51;;;;;;;28.60;17.52;;;;;;;17.15;25.03;103083.03;5035591;28;20585;-82
2022/03/25 07:12:17;;;;;;;25.50;15.55;;;;;;;17.71;25.20;103087.31;5015054;28;20052;-82
2022/03/25 07:14:43;;;;;;;28.92;16.00;;;;;;;18.30;23.12;103096.69;5040793;28;20508;-83
2022/03/25 07:17:09;;;;;;;27.90;16.00;;;;;;;18.26;23.73;103100.38;5039738;28;20041;-84
2022/03/25 07:19:34;;;;;;;31.60;17.05;;;;;;;18.76;22.53;103100.19;5039516;28;20076;-80
2022/03/25 07:22:00;;;;;;;34.72;17.33;;;;;;;18.97;22.53;103098.50;5038577;28;20721;-81
2022/03/25 07:24:25;;;;;;;32.45;18.25;;;;;;;19.23;21.84;103093.91;5015025;28;20033;-79
2022/03/25 07:26:51;;;;;;;28.73;18.10;;;;;;;19.28;22.27;103102.53;5036411;28;20036;-82
2022/03/25 07:29:16;;;;;;;28.83;17.05;;;;;;;20.26;21.04;103102.69;5023031;28;20126;-83
2022/03/25 07:31:42;;;;;;;26.83;17.38;;;;;;;20.27;20.98;103105.28;5041226;28;20048;-81
2022/03/25 07:34:07;;;;;;;27.33;17.77;;;;;;;20.82;20.25;103101.81;5020073;28;20045;-78
2022/03/25 07:36:33;;;;;;;28.92;18.08;;;;;;;20.65;19.40;103110.59;5039759;28;20036;-80
2022/03/25 07:38:59;;;;;;;27.20;17.60;;;;;;;19.65;20.99;103111.59;5021362;28;20158;-80
2022/03/25 07:41:24;;;;;;;25.35;17.13;;;;;;;19.85;20.44;103102.75;5025310;28;20029;-81
2022/03/25 07:43:52;;;;;;;29.25;17.30;;;;;;;20.84;19.54;103107.03;5036471;28;20624;-79
2022/03/25 07:46:18;;;;;;;25.48;16.13;;;;;;;20.22;19.89;103114.41;5020773;28;20041;-80
2022/03/25 07:48:43;;;;;;;27.70;17.10;;;;;;;20.31;19.53;103117.50;5033607;28;20029;-79
2022/03/25 07:51:09;;;;;;;31.13;19.02;;;;;;;19.21;21.43;103123.16;5038736;28;20314;-79
2022/03/25 07:53:34;;;;;;;26.08;17.25;;;;;;;20.17;20.04;103129.63;5037005;28;20454;-78
2022/03/25 07:56:00;;;;;;;26.83;17.58;;;;;;;20.44;19.54;103123.09;5057250;28;20086;-78
2022/03/25 07:58:26;;;;;;;27.52;18.60;;;;;;;18.50;22.15;103137.41;5066494;28;20047;-77
2022/03/25 08:00:52;;;;;;;26.65;17.00;;;;;;;19.10;21.17;103138.63;5046886;28;20041;-81
2022/03/25 08:03:18;;;;;;;23.25;16.40;;;;;;;18.78;21.56;103132.78;5036936;28;20071;-81
2022/03/25 08:05:47;;;;;;;26.52;17.33;;;;;;;18.38;22.54;103136.09;5034759;28;20037;-83
2022/03/25 08:08:13;;;;;;;27.75;16.23;;;;;;;19.37;20.85;103139.28;5037328;28;20395;-81
2022/03/25 08:10:39;;;;;;;24.98;15.80;;;;;;;21.14;19.25;103141.94;5035645;28;20036;-81
2022/03/25 08:13:05;;;;;;;23.20;14.80;;;;;;;21.63;17.21;103136.81;5036479;28;20048;-79
2022/03/25 08:15:32;;;;;;;31.55;15.82;;;;;;;20.95;17.70;103139.28;5041513;28;20119;-79
2022/03/25 08:17:58;;;;;;;24.80;17.27;;;;;;;20.16;17.96;103139.41;5036408;28;20150;-80
2022/03/25 08:20:37;;;;;;;29.40;16.13;;;;;;;19.03;19.75;103145.06;5035917;28;20537;-81
2022/03/25 08:23:04;;;;;;;27.38;15.55;;;;;;;19.34;19.38;103149.13;5021102;28;20033;-78
2022/03/25 08:28:16;;;;;;;30.23;15.10;;;;;;;20.09;18.18;103149.44;5050699;28;20073;-76
2022/03/25 08:30:44;;;;;;;27.13;14.57;;;;;;;19.94;19.12;103155.44;5041732;28;20060;-80
2022/03/25 08:33:10;;;;;;;23.20;14.88;;;;;;;20.56;18.08;103153.53;5014285;28;20037;-79
2022/03/25 08:35:40;;;;;;;19.75;12.18;;;;;;;20.38;17.09;103155.25;5023093;28;20063;-80
2022/03/25 08:38:07;;;;;;;21.23;13.73;;;;;;;19.94;17.84;103160.72;5040655;28;20425;-80
2022/03/25 08:40:34;;;;;;;25.13;14.98;;;;;;;19.33;19.40;103158.88;5038680;28;20028;-80
2022/03/25 08:43:04;;;;;;;25.75;14.65;;;;;;;20.26;18.17;103153.16;5006251;28;20037;-77
2022/03/25 08:45:31;;;;;;;24.55;14.27;;;;;;;20.27;17.03;103150.44;5039730;28;20232;-78
2022/03/25 08:47:57;;;;;;;28.02;14.10;;;;;;;20.70;17.98;103158.19;5038899;28;20036;-81
2022/03/25 08:50:23;;;;;;;25.52;13.88;;;;;;;20.93;16.71;103154.47;5039613;28;20064;-80
2022/03/25 08:52:50;;;;;;;23.83;13.75;;;;;;;20.56;17.46;103158.00;5041641;28;20144;-79
2022/03/25 08:55:18;;;;;;;24.63;13.35;;;;;;;20.05;17.82;103161.13;5040557;28;20037;-79
2022/03/25 08:57:44;;;;;;;23.52;14.73;;;;;;;19.99;17.84;103164.03;5014521;28;20051;-79
2022/03/25 09:00:12;;;;;;;22.17;14.35;;;;;;;19.43;18.04;103162.88;5022617;28;20119;-79
2022/03/25 09:02:43;;;;;;;25.88;14.77;;;;;;;19.03;18.78;103163.63;5039049;28;20122;-79
2022/03/25 09:05:10;;;;;;;29.33;15.68;;;;;;;18.85;19.93;103166.06;5004405;28;20033;-78
2022/03/25 09:07:37;;;;;;;21.80;13.27;;;;;;;18.33;19.35;103165.41;5042500;28;20047;-82
2022/03/25 09:10:10;;;;;;;26.73;15.15;;;;;;;17.93;19.83;103161.50;5038457;28;20577;-77
2022/03/25 09:12:37;;;;;;;23.05;13.68;;;;;;;18.06;20.92;103162.78;5041695;28;20055;-77
2022/03/25 09:15:04;;;;;;;28.50;14.88;;;;;;;18.16;20.32;103165.09;5036749;28;20392;-78
2022/03/25 09:17:30;;;;;;;28.80;15.30;;;;;;;18.08;21.19;103160.09;5039805;28;20052;-81
2022/03/25 09:19:56;;;;;;;29.90;15.70;;;;;;;16.96;21.38;103161.19;5035936;28;20032;-76
2022/03/25 09:22:21;;;;;;;22.42;13.95;;;;;;;17.27;21.16;103162.81;5039413;28;20047;-79
2022/03/25 09:24:47;;;;;;;27.35;15.90;;;;;;;16.85;22.51;103163.28;5038412;28;20482;-79
2022/03/25 09:27:13;;;;;;;26.33;14.60;;;;;;;16.78;22.22;103163.47;5038108;28;20059;-80
2022/03/25 09:29:38;;;;;;;28.58;15.05;;;;;;;17.35;22.03;103163.44;5038340;28;20040;-79
2022/03/25 09:32:04;;;;;;;23.70;12.90;;;;;;;17.04;20.77;103164.44;5021909;28;20044;-79
2022/03/25 09:37:14;;;;;;;28.65;13.00;;;;;;;17.95;19.63;103159.66;5044679;28;20447;-79
2022/03/25 09:39:40;;;;;;;23.00;13.45;;;;;;;18.03;20.54;103152.34;5042264;28;20144;-78
2022/03/25 09:42:07;;;;;;;25.42;13.15;;;;;;;17.93;20.35;103150.91;5026332;28;20028;-79
2022/03/25 09:44:34;;;;;;;21.20;13.30;;;;;;;18.11;19.97;103153.84;5040767;28;20104;-79
2022/03/25 09:47:00;;;;;;;24.85;13.63;;;;;;;18.28;20.95;103156.75;5036872;28;20036;-80
2022/03/25 09:49:26;;;;;;;26.65;13.82;;;;;;;17.44;20.51;103153.44;5044092;28;20653;-80
2022/03/25 09:51:51;;;;;;;24.35;13.82;;;;;;;17.78;20.72;103156.75;5037606;28;20099;-81
2022/03/25 09:54:17;;;;;;;23.50;12.73;;;;;;;17.75;19.65;103160.38;5039380;28;20033;-80
2022/03/25 09:56:43;;;;;;;26.15;13.02;;;;;;;17.41;20.33;103168.53;5038315;28;20483;-79
2022/03/25 09:59:09;;;;;;;22.85;13.40;;;;;;;17.68;19.82;103160.63;5039572;28;20530;-80
2022/03/25 10:01:35;;;;;;;21.17;11.50;;;;;;;17.53;19.44;103168.16;5039398;28;20033;-78
2022/03/25 10:04:01;;;;;;;19.25;10.60;;;;;;;17.42;19.16;103170.25;5018032;28;20604;-79
2022/03/25 10:06:27;;;;;;;22.50;11.45;;;;;;;17.45;19.90;103172.81;5043208;28;20067;-81
2022/03/25 10:08:57;;;;;;;23.42;13.57;;;;;;;17.10;21.53;103180.09;5042451;28;20180;-79
2022/03/25 10:11:24;;;;;;;25.00;14.48;;;;;;;17.13;20.77;103185.28;5037091;28;20070;-78
2022/03/25 10:14:14;;;;;;;29.90;13.23;;;;;;;17.26;20.39;103183.13;5063395;28;20033;-77
2022/03/25 10:16:41;;;;;;;25.30;13.73;;;;;;;17.37;20.04;103182.78;5044098;28;20063;-79
2022/03/25 10:19:09;;;;;;;26.02;14.90;;;;;;;17.88;20.59;103181.13;5025809;28;20042;-78
2022/03/25 10:21:52;;;;;;;30.75;15.00;;;;;;;17.18;21.12;103183.38;5040135;28;20013;-79
2022/03/25 10:24:18;;;;;;;22.02;14.20;;;;;;;17.53;20.05;103184.03;5043704;28;20044;-79
2022/03/25 10:26:45;;;;;;;30.02;15.38;;;;;;;17.17;20.66;103181.63;5041038;28;20032;-78
2022/03/25 10:29:22;;;;;;;23.15;13.82;;;;;;;17.21;20.78;103183.25;4999113;28;20284;-80
2022/03/25 10:32:06;;;;;;;26.52;12.98;;;;;;;16.82;20.64;103180.06;5019872;28;20055;-79
2022/03/25 10:34:32;;;;;;;25.50;11.55;;;;;;;17.58;19.40;103175.94;5005957;28;20398;-79
2022/03/25 10:37:12;;;;;;;22.00;13.00;;;;;;;17.95;19.95;103170.25;5016688;28;20039;-79
2022/03/25 10:39:38;;;;;;;22.73;11.73;;;;;;;17.84;18.69;103169.75;5037938;28;20137;-77
2022/03/25 10:42:07;;;;;;;24.45;11.95;;;;;;;17.65;18.65;103172.19;5016450;28;20537;-79
2022/03/25 10:44:41;;;;;;;23.90;11.00;;;;;;;17.79;17.77;103174.34;5038537;28;20564;-78
2022/03/25 10:47:16;;;;;;;20.65;10.68;;;;;;;17.88;17.22;103170.53;5038681;28;20106;-80
2022/03/25 10:49:46;;;;;;;19.60;10.52;;;;;;;17.54;17.10;103184.91;5029609;28;20517;-79
2022/03/25 10:52:32;;;;;;;22.38;12.23;;;;;;;17.63;18.38;103176.66;5030902;28;20041;-77
2022/03/25 10:55:18;;;;;;;20.70;12.07;;;;;;;16.41;19.22;103180.34;5038352;28;20094;-80
2022/03/25 10:57:58;;;;;;;24.00;12.20;;;;;;;17.27;18.86;103176.03;5041696;28;20045;-79
2022/03/25 11:00:26;;;;;;;28.08;11.20;;;;;;;17.56;18.27;103183.03;5041021;28;20033;-79
2022/03/25 11:02:52;;;;;;;21.15;12.20;;;;;;;17.22;18.67;103181.47;5037542;28;20048;-80
2022/03/25 11:05:18;;;;;;;25.63;11.93;;;;;;;17.35;19.14;103176.66;5039253;28;20551;-77
2022/03/25 11:07:46;;;;;;;22.27;12.95;;;;;;;17.09;19.00;103183.66;5035852;28;20101;-80
2022/03/25 11:10:14;;;;;;;21.55;11.98;;;;;;;17.58;17.77;103182.09;5039362;28;20040;-78
2022/03/25 11:12:51;;;;;;;19.83;10.90;;;;;;;17.51;17.92;103183.22;5004713;28;20055;-82
2022/03/25 11:15:19;;;;;;;19.92;12.10;;;;;;;17.24;17.70;103188.44;5021849;28;20190;-79
2022/03/25 11:17:46;;;;;;;20.65;12.05;;;;;;;17.08;19.99;103187.19;5037315;28;20041;-80
2022/03/25 11:20:13;;;;;;;23.95;10.93;;;;;;;16.80;17.89;103179.25;5018194;28;20139;-81